Time,TemperatureF,DewpointF,PressureIn,WindDirection,WindDirectionDegrees,WindSpeedMPH,WindSpeedGustMPH,Humidity,HourlyPrecipIn,Conditions,Clouds,dailyrainin,SoftwareType,DateUTC
2013-10-18 00:06:00,65.4,62.0,29.61,SSW,213,0.0,3.0,88,0.00,,,0.00,weatherlink.com 1.10,2013-10-18 04:06:00,
2013-10-18 00:21:00,65.5,62.0,29.61,South,173,3.0,7.0,88,0.00,,,0.00,weatherlink.com 1.10,2013-10-18 04:21:00,
2013-10-18 00:36:00,65.6,62.0,29.61,West,266,2.0,11.0,88,0.01,,,0.01,weatherlink.com 1.10,2013-10-18 04:36:00,
2013-10-18 00:52:00,65.6,62.0,29.60,SSE,148,3.0,8.0,88,0.01,,,0.01,weatherlink.com 1.10,2013-10-18 04:52:00,
2013-10-18 01:07:00,65.6,62.0,29.60,South,172,1.0,9.0,88,0.01,,,0.01,weatherlink.com 1.10,2013-10-18 05:07:00,
2013-10-18 01:22:00,65.7,62.0,29.60,SSE,166,1.0,5.0,88,0.01,,,0.01,weatherlink.com 1.10,2013-10-18 05:22:00,
2013-10-18 01:37:00,65.9,62.0,29.59,SSE,150,5.0,7.0,88,0.00,,,0.01,weatherlink.com 1.10,2013-10-18 05:37:00,
2013-10-18 01:52:00,66.6,62.0,29.60,SSE,166,2.0,8.0,86,0.00,,,0.01,weatherlink.com 1.10,2013-10-18 05:52:00,
2013-10-18 02:07:00,66.7,62.0,29.60,SE,132,0.0,7.0,84,0.00,,,0.01,weatherlink.com 1.10,2013-10-18 06:07:00,
2013-10-18 02:22:00,66.7,61.0,29.60,ENE,68,5.0,5.0,83,0.00,,,0.01,weatherlink.com 1.10,2013-10-18 06:22:00,
2013-10-18 02:37:00,66.7,60.0,29.61,North,352,0.0,6.0,78,0.00,,,0.01,weatherlink.com 1.10,2013-10-18 06:37:00,
2013-10-18 02:52:00,66.5,57.0,29.61,NE,51,3.0,8.0,72,0.00,,,0.01,weatherlink.com 1.10,2013-10-18 06:52:00,
2013-10-18 03:07:00,66.2,54.0,29.61,ENE,60,1.0,7.0,66,0.00,,,0.01,weatherlink.com 1.10,2013-10-18 07:07:00,
2013-10-18 03:22:00,65.5,54.0,29.62,North,358,1.0,7.0,66,0.00,,,0.01,weatherlink.com 1.10,2013-10-18 07:22:00,
2013-10-18 03:37:00,65.0,53.0,29.62,South,188,1.0,6.0,65,0.00,,,0.01,weatherlink.com 1.10,2013-10-18 07:37:00,
2013-10-18 03:52:00,64.4,55.0,29.63,East,94,2.0,6.0,72,0.00,,,0.01,weatherlink.com 1.10,2013-10-18 07:52:00,
2013-10-18 04:07:00,63.6,55.0,29.64,SE,136,1.0,7.0,73,0.00,,,0.01,weatherlink.com 1.10,2013-10-18 08:07:00,
2013-10-18 04:22:00,62.8,53.0,29.65,ESE,106,0.0,6.0,71,0.00,,,0.01,weatherlink.com 1.10,2013-10-18 08:22:00,
2013-10-18 04:37:00,62.1,53.0,29.66,SE,145,5.0,12.0,71,0.00,,,0.01,weatherlink.com 1.10,2013-10-18 08:37:00,
2013-10-18 04:52:00,61.5,52.0,29.66,South,176,3.0,6.0,70,0.00,,,0.01,weatherlink.com 1.10,2013-10-18 08:52:00,
2013-10-18 05:07:00,61.1,51.0,29.67,ENE,68,2.0,6.0,70,0.00,,,0.01,weatherlink.com 1.10,2013-10-18 09:07:00,
2013-10-18 05:22:00,60.7,51.0,29.67,SSE,149,2.0,5.0,71,0.00,,,0.01,weatherlink.com 1.10,2013-10-18 09:22:00,
2013-10-18 05:37:00,60.1,50.0,29.68,NNW,331,1.0,8.0,69,0.00,,,0.01,weatherlink.com 1.10,2013-10-18 09:37:00,
2013-10-18 05:52:00,59.9,49.0,29.69,ESE,113,1.0,6.0,67,0.00,,,0.01,weatherlink.com 1.10,2013-10-18 09:52:00,
2013-10-18 06:07:00,64.1,48.0,29.69,SE,132,3.0,9.0,57,0.00,,,0.01,weatherlink.com 1.10,2013-10-18 10:07:00,
2013-10-18 06:22:00,64.9,48.0,29.70,ESE,116,4.0,4.0,54,0.00,,,0.01,weatherlink.com 1.10,2013-10-18 10:22:00,
2013-10-18 06:37:00,61.2,46.0,29.71,ESE,103,0.0,7.0,57,0.00,,,0.01,weatherlink.com 1.10,2013-10-18 10:37:00,
2013-10-18 06:53:00,59.0,46.0,29.72,ESE,106,1.0,7.0,62,0.00,,,0.01,weatherlink.com 1.10,2013-10-18 10:53:00,
2013-10-18 07:08:00,62.7,46.0,29.73,NW,323,0.0,9.0,55,0.00,,,0.01,weatherlink.com 1.10,2013-10-18 11:08:00,
2013-10-18 07:23:00,58.7,46.0,29.73,SE,140,0.0,4.0,62,0.00,,,0.01,weatherlink.com 1.10,2013-10-18 11:23:00,
2013-10-18 07:38:00,58.0,45.0,29.74,ENE,76,1.0,9.0,63,0.00,,,0.01,weatherlink.com 1.10,2013-10-18 11:38:00,
2013-10-18 07:53:00,60.1,45.0,29.75,SSE,149,1.0,7.0,58,0.00,,,0.01,weatherlink.com 1.10,2013-10-18 11:53:00,
2013-10-18 08:08:00,58.0,45.0,29.75,East,81,1.0,4.0,63,0.00,,,0.01,weatherlink.com 1.10,2013-10-18 12:08:00,
2013-10-18 08:23:00,58.0,45.0,29.76,NNE,18,1.0,8.0,63,0.00,,,0.01,weatherlink.com 1.10,2013-10-18 12:23:00,
2013-10-18 08:38:00,59.9,45.0,29.77,ENE,77,0.0,10.0,59,0.00,,,0.01,weatherlink.com 1.10,2013-10-18 12:38:00,
2013-10-18 08:53:00,58.3,45.0,29.78,NE,49,1.0,6.0,61,0.00,,,0.01,weatherlink.com 1.10,2013-10-18 12:53:00,
2013-10-18 09:08:00,58.1,45.0,29.78,ENE,74,0.0,8.0,61,0.00,,,0.01,weatherlink.com 1.10,2013-10-18 13:08:00,
2013-10-18 09:23:00,60.0,44.0,29.79,SE,128,4.0,7.0,57,0.00,,,0.01,weatherlink.com 1.10,2013-10-18 13:23:00,
2013-10-18 09:38:00,59.1,45.0,29.79,NNE,27,3.0,8.0,59,0.00,,,0.01,weatherlink.com 1.10,2013-10-18 13:38:00,
2013-10-18 09:53:00,59.5,44.0,29.78,NNE,27,0.0,7.0,58,0.00,,,0.01,weatherlink.com 1.10,2013-10-18 13:53:00,
2013-10-18 10:08:00,62.5,44.0,29.79,SE,130,2.0,8.0,51,0.00,,,0.01,weatherlink.com 1.10,2013-10-18 14:08:00,
2013-10-18 10:23:00,60.3,44.0,29.79,East,96,1.0,7.0,56,0.00,,,0.01,weatherlink.com 1.10,2013-10-18 14:23:00,
2013-10-18 10:38:00,60.9,44.0,29.80,North,360,5.0,6.0,55,0.00,,,0.01,weatherlink.com 1.10,2013-10-18 14:38:00,
2013-10-18 10:53:00,64.7,45.0,29.79,ENE,77,2.0,5.0,49,0.00,,,0.01,weatherlink.com 1.10,2013-10-18 14:53:00,
2013-10-18 11:08:00,62.3,44.0,29.80,ENE,77,1.0,5.0,52,0.00,,,0.01,weatherlink.com 1.10,2013-10-18 15:08:00,
2013-10-18 11:23:00,62.4,44.0,29.80,ENE,69,0.0,8.0,52,0.00,,,0.01,weatherlink.com 1.10,2013-10-18 15:23:00,
2013-10-18 11:38:00,64.9,45.0,29.80,East,100,0.0,8.0,49,0.00,,,0.01,weatherlink.com 1.10,2013-10-18 15:38:00,
2013-10-18 11:53:00,63.9,45.0,29.80,ENE,71,0.0,4.0,50,0.00,,,0.01,weatherlink.com 1.10,2013-10-18 15:53:00,
2013-10-18 12:08:00,63.9,44.0,29.79,East,101,1.0,8.0,49,0.00,,,0.01,weatherlink.com 1.10,2013-10-18 16:08:00,
2013-10-18 12:23:00,69.1,46.0,29.79,ESE,103,2.0,6.0,43,0.00,,,0.01,weatherlink.com 1.10,2013-10-18 16:23:00,
2013-10-18 12:38:00,65.8,44.0,29.79,North,9,1.0,7.0,46,0.00,,,0.01,weatherlink.com 1.10,2013-10-18 16:38:00,
2013-10-18 12:53:00,68.0,46.0,29.79,East,95,4.0,8.0,45,0.00,,,0.01,weatherlink.com 1.10,2013-10-18 16:53:00,
2013-10-18 13:08:00,68.9,45.0,29.78,WSW,242,3.0,6.0,43,0.00,,,0.01,weatherlink.com 1.10,2013-10-18 17:08:00,
2013-10-18 13:23:00,66.8,45.0,29.78,SW,214,1.0,10.0,45,0.00,,,0.01,weatherlink.com 1.10,2013-10-18 17:23:00,
2013-10-18 13:38:00,70.5,45.0,29.78,SE,133,3.0,5.0,40,0.00,,,0.01,weatherlink.com 1.10,2013-10-18 17:38:00,
2013-10-18 13:53:00,67.8,44.0,29.78,NE,40,1.0,11.0,42,0.00,,,0.01,weatherlink.com 1.10,2013-10-18 17:53:00,
2013-10-18 14:08:00,68.2,43.0,29.77,SE,138,0.0,6.0,41,0.00,,,0.01,weatherlink.com 1.10,2013-10-18 18:08:00,
2013-10-18 14:23:00,71.6,43.0,29.77,SE,129,0.0,7.0,36,0.00,,,0.01,weatherlink.com 1.10,2013-10-18 18:23:00,
2013-10-18 14:38:00,68.7,42.0,29.77,NNE,30,2.0,7.0,38,0.00,,,0.01,weatherlink.com 1.10,2013-10-18 18:38:00,
2013-10-18 14:54:00,72.2,43.0,29.77,SSE,160,3.0,7.0,35,0.00,,,0.01,weatherlink.com 1.10,2013-10-18 18:54:00,
2013-10-18 15:08:00,69.7,42.0,29.78,NW,322,5.0,9.0,37,0.00,,,0.01,weatherlink.com 1.10,2013-10-18 19:08:00,
2013-10-18 15:23:00,69.0,43.0,29.77,SE,129,4.0,5.0,39,0.00,,,0.01,weatherlink.com 1.10,2013-10-18 19:23:00,
2013-10-18 15:38:00,70.7,42.0,29.77,SE,131,2.0,5.0,36,0.00,,,0.01,weatherlink.com 1.10,2013-10-18 19:38:00,
2013-10-18 15:53:00,69.0,42.0,29.77,SE,126,2.0,6.0,37,0.00,,,0.01,weatherlink.com 1.10,2013-10-18 19:53:00,
2013-10-18 16:08:00,71.9,43.0,29.77,NNE,23,3.0,6.0,35,0.00,,,0.01,weatherlink.com 1.10,2013-10-18 20:08:00,
2013-10-18 16:23:00,69.1,42.0,29.78,NE,35,2.0,6.0,38,0.00,,,0.01,weatherlink.com 1.10,2013-10-18 20:23:00,
2013-10-18 16:38:00,68.4,42.0,29.77,East,96,2.0,6.0,39,0.00,,,0.01,weatherlink.com 1.10,2013-10-18 20:38:00,
2013-10-18 16:53:00,68.8,42.0,29.78,NE,40,2.0,6.0,38,0.00,,,0.01,weatherlink.com 1.10,2013-10-18 20:53:00,
2013-10-18 17:08:00,66.7,42.0,29.78,SSE,156,0.0,4.0,41,0.00,,,0.01,weatherlink.com 1.10,2013-10-18 21:08:00,
2013-10-18 17:23:00,70.9,43.0,29.79,ENE,77,3.0,6.0,36,0.00,,,0.01,weatherlink.com 1.10,2013-10-18 21:23:00,
2013-10-18 17:38:00,66.8,42.0,29.79,SE,141,2.0,4.0,40,0.00,,,0.01,weatherlink.com 1.10,2013-10-18 21:38:00,
2013-10-18 17:53:00,66.5,43.0,29.80,East,96,1.0,6.0,42,0.00,,,0.01,weatherlink.com 1.10,2013-10-18 21:53:00,
2013-10-18 18:08:00,68.0,41.0,29.81,East,84,3.0,6.0,38,0.00,,,0.01,weatherlink.com 1.10,2013-10-18 22:08:00,
2013-10-18 18:23:00,65.1,41.0,29.81,SE,134,0.0,5.0,42,0.00,,,0.01,weatherlink.com 1.10,2013-10-18 22:23:00,
2013-10-18 18:39:00,67.8,43.0,29.82,ESE,115,3.0,5.0,41,0.00,,,0.01,weatherlink.com 1.10,2013-10-18 22:39:00,
2013-10-18 18:54:00,65.4,42.0,29.83,SSW,208,1.0,6.0,43,0.00,,,0.01,weatherlink.com 1.10,2013-10-18 22:54:00,
2013-10-18 19:09:00,64.1,42.0,29.84,South,184,4.0,6.0,45,0.00,,,0.01,weatherlink.com 1.10,2013-10-18 23:09:00,
2013-10-18 19:24:00,63.4,42.0,29.84,SSE,150,2.0,5.0,46,0.00,,,0.01,weatherlink.com 1.10,2013-10-18 23:24:00,
2013-10-18 19:39:00,63.1,42.0,29.84,ESE,121,0.0,3.0,47,0.00,,,0.01,weatherlink.com 1.10,2013-10-18 23:39:00,
2013-10-18 19:54:00,62.7,42.0,29.85,South,180,2.0,7.0,47,0.00,,,0.01,weatherlink.com 1.10,2013-10-18 23:54:00,
2013-10-18 20:09:00,62.4,42.0,29.85,ESE,116,0.0,7.0,47,0.00,,,0.01,weatherlink.com 1.10,2013-10-19 00:09:00,
2013-10-18 20:24:00,63.7,42.0,29.86,ESE,115,7.0,7.0,45,0.00,,,0.01,weatherlink.com 1.10,2013-10-19 00:24:00,
2013-10-18 20:39:00,62.3,42.0,29.86,East,86,0.0,6.0,47,0.00,,,0.01,weatherlink.com 1.10,2013-10-19 00:39:00,
2013-10-18 20:54:00,62.0,42.0,29.86,SSW,198,0.0,7.0,48,0.00,,,0.01,weatherlink.com 1.10,2013-10-19 00:54:00,
2013-10-18 21:09:00,61.5,41.0,29.86,NNE,29,2.0,5.0,48,0.00,,,0.01,weatherlink.com 1.10,2013-10-19 01:09:00,
2013-10-18 21:24:00,61.1,42.0,29.87,ESE,115,2.0,5.0,49,0.00,,,0.01,weatherlink.com 1.10,2013-10-19 01:24:00,
2013-10-18 21:39:00,60.8,41.0,29.88,East,100,0.0,5.0,49,0.00,,,0.01,weatherlink.com 1.10,2013-10-19 01:39:00,
2013-10-18 21:54:00,60.5,42.0,29.88,ESE,110,3.0,8.0,50,0.00,,,0.01,weatherlink.com 1.10,2013-10-19 01:54:00,
2013-10-18 22:09:00,60.1,41.0,29.88,ESE,120,1.0,6.0,50,0.00,,,0.01,weatherlink.com 1.10,2013-10-19 02:09:00,
2013-10-18 22:24:00,60.0,41.0,29.89,East,89,3.0,4.0,50,0.00,,,0.01,weatherlink.com 1.10,2013-10-19 02:24:00,
2013-10-18 22:39:00,59.6,41.0,29.89,SSE,150,2.0,3.0,51,0.00,,,0.01,weatherlink.com 1.10,2013-10-19 02:39:00,
2013-10-18 22:54:00,59.4,41.0,29.89,NNE,15,2.0,5.0,51,0.00,,,0.01,weatherlink.com 1.10,2013-10-19 02:54:00,
2013-10-18 23:09:00,59.4,41.0,29.89,ENE,74,2.0,3.0,51,0.00,,,0.01,weatherlink.com 1.10,2013-10-19 03:09:00,
2013-10-18 23:24:00,59.3,40.0,29.89,East,95,0.0,4.0,50,0.00,,,0.01,weatherlink.com 1.10,2013-10-19 03:24:00,
2013-10-18 23:39:00,59.2,40.0,29.90,East,96,0.0,6.0,50,0.00,,,0.01,weatherlink.com 1.10,2013-10-19 03:39:00,
2013-10-18 23:54:00,59.1,40.0,29.90,East,81,0.0,5.0,50,0.00,,,0.01,weatherlink.com 1.10,2013-10-19 03:54:00,